Main page
METAR-TAF:

METAR-TAF

Airports :

Cranfield Airport

Cranfield, England

latitude: 52-04N, longitude: 000-37W, elevation: 111 m

Current weather observation

The report was made 16 hours and 26 minutes ago, at 15:20 UTC
Wind 5 kt from the West/Northwest
Temperature 11°C
Humidity 76%
Pressure 1002 hPa
Visibility 10 km or more
Scattered clouds at a height of 3800 ft

METAR: EGTC 041520Z 29005KT 9999 SCT038 11/07 Q1002

Time: 08:46 (07:46 UTC)

Forecast

The report was made 23 hours and 47 minutes ago, at 07:59 UTC
Forecast valid from 04 at 09 UTC to 04 at 16 UTC
Wind 9 kt from the North/Northwest
Visibility 10 km or more
Scattered clouds at a height of 3500 ft
Probability 30% :
Temporary
from 04 at 14 UTC to 04 at 16 UTC
Visibility: 7000 m
rain showers

TAF: EGTC 040759Z 0409/0416 33009KT 9999 SCT035 PROB30 TEMPO 0414/0416 7000 SHRA

Weather observations and forecasts of more than 4000 airports (METAR and TAF reports).

The available stations are represented by yellow and red dots on the map.

Hover mouse over dot to see the name of the station.

Then click to see weather observations and forecasts.

To change the map : click on the green buttons with a black cross to zoom in, on the green button with a dash to zoom out, or on the green arrows for adjacent maps.


METAR-TAF: